Terminal Aerodrome Forecast
Issued by NWS Austin/San Antonio, TX

Home | Current Version | Previous Version | Text Only | Print | Product List | Glossary On
Versions: 1 2 3 4 5 6 7 8 9 10 11 12 13 14 15 16 17 18 19 20 21 22 23 24
145
FTUS44 KEWX 252333
TAFSAT
TAF
KSAT 252333Z 2600/2706 15010KT P6SM SKC
     FM260900 14006KT P6SM OVC015
     FM261000 15005KT 5SM BR OVC009
     FM261300 16005KT 6SM BR OVC015
     FM261400 16006KT P6SM SCT020 BKN250
     FM261900 18010G20KT P6SM SCT030 BKN250=

USA.gov is the U.S. government's official web portal to all federal, state and local government web resources and services.